createdAt,value
2023-01-25T00:00:10.382Z,12.52
2023-01-25T00:05:12.053Z,13.68
2023-01-25T00:10:13.784Z,13.77
2023-01-25T00:15:15.567Z,13.05
2023-01-25T00:20:17.433Z,12.43
2023-01-25T00:25:19.051Z,13.98
2023-01-25T00:30:20.825Z,13.82
2023-01-25T00:35:22.602Z,13.50
2023-01-25T00:40:24.272Z,13.93
2023-01-25T00:45:26.052Z,13.50
2023-01-25T00:50:27.701Z,13.15
2023-01-25T00:55:29.387Z,14.50
2023-01-25T01:00:30.997Z,14.27
2023-01-25T01:05:32.631Z,14.00
2023-01-25T01:10:34.319Z,14.50
2023-01-25T01:15:37.244Z,14.75
2023-01-25T01:20:38.897Z,16.63
2023-01-25T01:25:40.517Z,15.80
2023-01-25T01:30:42.194Z,13.95
2023-01-25T01:35:46.677Z,15.30
2023-01-25T01:40:49.365Z,16.73
2023-01-25T01:45:55.403Z,15.15
2023-01-25T01:51:02.883Z,15.43
2023-01-25T01:56:11.306Z,14.77
2023-01-25T02:01:13.262Z,14.52
2023-01-25T02:06:39.602Z,15.00
2023-01-25T02:11:41.795Z,15.52
2023-01-25T02:16:44.408Z,15.00
2023-01-25T02:21:47.626Z,15.40
2023-01-25T02:26:49.489Z,12.65
2023-01-25T02:31:58.516Z,14.07
2023-01-25T02:37:00.282Z,14.52
2023-01-25T02:42:01.962Z,16.13
2023-01-25T02:47:03.652Z,13.90
2023-01-25T02:52:05.560Z,16.05
2023-01-25T02:57:08.083Z,14.80
2023-01-25T03:02:09.710Z,14.73
2023-01-25T03:07:11.377Z,13.52
2023-01-25T03:12:12.984Z,15.10
2023-01-25T03:17:14.719Z,14.45
2023-01-25T03:22:16.586Z,15.57
2023-01-25T03:27:18.543Z,15.05
2023-01-25T03:32:20.273Z,13.32
2023-01-25T03:37:22.030Z,14.07
2023-01-25T03:42:24.546Z,13.95
2023-01-25T03:47:26.244Z,13.55
2023-01-25T03:52:38.500Z,14.55
2023-01-25T03:57:40.168Z,13.43
2023-01-25T04:02:41.963Z,13.65
2023-01-25T04:07:43.675Z,14.45
2023-01-25T04:12:45.343Z,13.60
2023-01-25T04:17:46.932Z,13.82
2023-01-25T04:22:48.633Z,13.57
2023-01-25T04:27:51.163Z,12.50
2023-01-25T04:32:52.832Z,14.85
2023-01-25T04:37:59.364Z,14.63
2023-01-25T04:43:01.099Z,14.68
2023-01-25T04:48:04.465Z,15.90
2023-01-25T04:53:07.323Z,13.73
2023-01-25T04:58:08.997Z,13.43
2023-01-25T05:03:10.685Z,14.18
2023-01-25T05:08:12.434Z,13.05
2023-01-25T05:13:14.145Z,13.50
2023-01-25T05:18:15.749Z,14.15
2023-01-25T05:23:17.465Z,14.20
2023-01-25T05:28:19.108Z,15.30
2023-01-25T05:33:21.005Z,14.98
2023-01-25T05:38:22.828Z,15.93
2023-01-25T05:43:24.445Z,16.25
2023-01-25T05:48:26.106Z,13.95
2023-01-25T05:53:28.548Z,13.27
2023-01-25T05:58:30.289Z,15.27
2023-01-25T06:03:32.250Z,14.75
2023-01-25T06:08:34.064Z,15.85
2023-01-25T06:13:36.274Z,15.35
2023-01-25T06:18:38.119Z,14.90
2023-01-25T06:23:40.053Z,14.57
2023-01-25T06:28:42.187Z,14.50
2023-01-25T06:33:48.284Z,15.95
2023-01-25T06:38:51.359Z,17.95
2023-01-25T06:43:53.829Z,12.60
2023-01-25T06:48:55.547Z,18.75
2023-01-25T06:53:57.327Z,16.48
2023-01-25T06:58:59.077Z,18.48
2023-01-25T07:04:00.811Z,17.65
2023-01-25T07:09:07.666Z,18.10
2023-01-25T07:14:09.519Z,16.10
2023-01-25T07:19:15.137Z,17.55
2023-01-25T07:24:19.376Z,14.25
2023-01-25T07:29:21.399Z,16.25
2023-01-25T07:34:23.231Z,15.43
2023-01-25T07:39:24.932Z,16.15
2023-01-25T07:44:26.630Z,16.02
2023-01-25T07:49:28.297Z,16.45
2023-01-25T07:54:30.047Z,16.95
2023-01-25T07:59:32.102Z,16.08
2023-01-25T08:04:33.829Z,16.25
2023-01-25T08:09:37.615Z,14.45
2023-01-25T08:19:41.025Z,15.50
2023-01-25T08:24:42.835Z,15.23
2023-01-25T08:29:44.558Z,14.70
2023-01-25T08:34:46.255Z,15.52
2023-01-25T08:39:47.979Z,15.90
2023-01-25T08:44:49.764Z,16.50
2023-01-25T08:49:52.406Z,16.83
2023-01-25T08:54:54.306Z,15.38
2023-01-25T08:59:56.018Z,17.80
2023-01-25T09:04:57.645Z,16.63
2023-01-25T09:09:59.841Z,16.80
2023-01-25T09:15:03.810Z,16.85
2023-01-25T09:20:07.844Z,17.17
2023-01-25T09:25:10.069Z,16.35
2023-01-25T09:30:18.287Z,16.83
2023-01-25T09:35:20.660Z,16.48
2023-01-25T09:40:26.667Z,17.77
2023-01-25T09:45:33.466Z,19.00
2023-01-25T09:50:36.785Z,17.45
2023-01-25T09:55:40.127Z,17.60
2023-01-25T10:00:45.516Z,16.67
2023-01-25T10:05:57.760Z,17.48
2023-01-25T10:11:14.069Z,17.60
2023-01-25T10:16:38.371Z,17.92
2023-01-25T10:21:53.487Z,19.98
2023-01-25T10:27:16.119Z,18.17
2023-01-25T10:32:41.962Z,18.13
2023-01-25T10:37:51.280Z,20.02
2023-01-25T10:43:06.126Z,20.65
2023-01-25T10:48:12.361Z,21.90
2023-01-25T10:53:26.221Z,19.30
2023-01-25T10:58:33.259Z,20.70
2023-01-25T11:03:37.045Z,21.33
2023-01-25T11:13:44.798Z,21.83
2023-01-25T11:18:55.767Z,20.77
2023-01-25T11:24:00.453Z,20.48
2023-01-25T11:29:23.939Z,17.75
2023-01-25T11:34:29.255Z,18.83
2023-01-25T11:39:41.350Z,18.73
2023-01-25T11:44:46.100Z,19.00
2023-01-25T11:50:13.061Z,19.48
2023-01-25T11:55:37.959Z,20.90
2023-01-25T12:00:44.189Z,20.05
2023-01-25T12:06:08.939Z,17.80
2023-01-25T12:11:52.655Z,20.20
2023-01-25T12:17:11.777Z,20.20
2023-01-25T12:22:38.447Z,19.77
2023-01-25T12:28:07.116Z,19.55
2023-01-25T12:33:14.685Z,19.45
2023-01-25T12:38:27.269Z,18.33
2023-01-25T12:43:42.041Z,18.02
2023-01-25T12:48:50.670Z,18.85
2023-01-25T12:53:53.164Z,21.60
2023-01-25T12:59:03.391Z,22.05
2023-01-25T13:04:43.648Z,22.40
2023-01-25T13:10:15.066Z,20.98
2023-01-25T13:15:38.007Z,21.13
2023-01-25T13:20:42.906Z,22.20
2023-01-25T13:25:44.716Z,21.10
2023-01-25T13:30:52.537Z,21.30
2023-01-25T13:35:54.699Z,19.80
2023-01-25T13:41:03.659Z,21.40
2023-01-25T13:46:08.273Z,20.50
2023-01-25T13:51:14.234Z,20.35
2023-01-25T13:56:34.916Z,19.30
2023-01-25T14:01:37.110Z,20.00
2023-01-25T14:06:40.782Z,18.83
2023-01-25T14:11:56.519Z,18.35
2023-01-25T14:22:28.628Z,17.63
2023-01-25T14:27:31.006Z,18.17
2023-01-25T14:32:33.180Z,16.63
2023-01-25T14:37:42.419Z,16.73
2023-01-25T14:42:44.290Z,16.83
2023-01-25T14:47:54.602Z,20.92
2023-01-25T14:53:25.236Z,17.75
2023-01-25T14:58:29.064Z,17.88
2023-01-25T15:08:38.405Z,18.77
2023-01-25T15:13:40.226Z,18.08
2023-01-25T15:18:45.040Z,18.20
2023-01-25T15:23:48.368Z,16.38
2023-01-25T15:28:52.451Z,17.75
2023-01-25T15:33:56.268Z,17.58
2023-01-25T15:38:58.121Z,18.52
2023-01-25T15:44:01.437Z,19.00
2023-01-25T15:49:05.955Z,19.40
2023-01-25T15:54:08.369Z,16.55
2023-01-25T15:59:17.125Z,17.88
2023-01-25T16:04:18.940Z,20.85
2023-01-25T16:09:30.881Z,20.13
2023-01-25T16:14:32.652Z,21.27
2023-01-25T16:19:34.479Z,21.10
2023-01-25T16:24:39.396Z,20.67
2023-01-25T16:29:41.343Z,24.65
2023-01-25T16:34:43.068Z,21.80
2023-01-25T16:39:45.823Z,19.95
2023-01-25T16:44:48.325Z,22.92
2023-01-25T16:49:49.969Z,23.05
2023-01-25T16:54:52.920Z,24.23
2023-01-25T16:59:54.587Z,23.40
2023-01-25T17:04:56.246Z,23.17
2023-01-25T17:09:58.549Z,23.15
2023-01-25T17:15:00.320Z,21.73
2023-01-25T17:20:02.129Z,24.35
2023-01-25T17:25:05.334Z,24.67
2023-01-25T17:30:08.095Z,19.50
2023-01-25T17:35:09.941Z,21.23
2023-01-25T17:40:12.515Z,21.27
2023-01-25T17:45:14.487Z,22.57
2023-01-25T17:50:16.467Z,23.40
2023-01-25T17:55:18.182Z,23.30
2023-01-25T18:00:21.303Z,24.90
2023-01-25T18:05:23.693Z,18.97
2023-01-25T18:10:25.529Z,23.38
2023-01-25T18:15:27.254Z,22.88
2023-01-25T18:20:31.398Z,24.98
2023-01-25T18:25:35.811Z,24.60
2023-01-25T18:30:57.476Z,20.75
2023-01-25T18:36:03.945Z,20.42
2023-01-25T18:41:05.880Z,19.15
2023-01-25T18:46:07.852Z,18.73
2023-01-25T18:51:15.509Z,18.73
2023-01-25T18:56:19.509Z,19.17
2023-01-25T19:01:22.886Z,16.00
2023-01-25T19:06:25.206Z,16.92
2023-01-25T19:11:27.068Z,16.58
2023-01-25T19:16:29.183Z,17.27
2023-01-25T19:21:31.080Z,17.08
2023-01-25T19:26:33.087Z,18.73
2023-01-25T19:31:37.611Z,17.08
2023-01-25T19:36:45.852Z,16.13
2023-01-25T19:41:47.656Z,15.13
2023-01-25T19:46:49.508Z,15.55
2023-01-25T19:51:53.185Z,16.65
2023-01-25T19:56:56.155Z,18.75
2023-01-25T20:01:57.929Z,18.07
2023-01-25T20:06:59.675Z,18.58
2023-01-25T20:12:02.988Z,17.48
2023-01-25T20:17:06.801Z,14.75
2023-01-25T20:27:10.635Z,19.63
2023-01-25T20:32:26.660Z,19.08
2023-01-25T20:37:33.392Z,18.75
2023-01-25T20:42:35.049Z,17.77
2023-01-25T20:47:36.806Z,16.38
2023-01-25T20:52:38.404Z,15.02
2023-01-25T20:57:40.725Z,13.10
2023-01-25T21:02:42.384Z,13.95
2023-01-25T21:07:44.075Z,12.63
2023-01-25T21:12:45.770Z,13.80
2023-01-25T21:17:53.545Z,15.35
2023-01-25T21:22:55.193Z,15.40
2023-01-25T21:27:57.021Z,13.63
2023-01-25T21:32:59.818Z,12.57
2023-01-25T21:38:01.688Z,13.18
2023-01-25T21:43:03.764Z,13.15
2023-01-25T21:48:05.773Z,13.50
2023-01-25T21:53:08.954Z,13.60
2023-01-25T21:58:10.719Z,13.25
2023-01-25T22:03:12.514Z,14.70
2023-01-25T22:08:14.247Z,15.07
2023-01-25T22:13:15.956Z,13.75
2023-01-25T22:18:17.751Z,14.15
2023-01-25T22:23:19.788Z,13.80
2023-01-25T22:28:21.863Z,13.73
2023-01-25T22:33:23.605Z,13.93
2023-01-25T22:38:25.534Z,15.18
2023-01-25T22:43:27.209Z,13.45
2023-01-25T22:48:29.165Z,13.93
2023-01-25T22:53:31.201Z,13.13
2023-01-25T22:58:36.901Z,14.15
2023-01-25T23:03:39.246Z,14.25
2023-01-25T23:08:41.153Z,15.60
2023-01-25T23:14:03.262Z,14.70
2023-01-25T23:19:05.996Z,14.43
2023-01-25T23:24:08.244Z,12.27
2023-01-25T23:29:12.694Z,15.32
2023-01-25T23:34:14.381Z,13.13
2023-01-25T23:39:16.051Z,14.25
2023-01-25T23:44:17.798Z,14.20
2023-01-25T23:49:19.475Z,14.82
2023-01-25T23:54:21.125Z,14.82
2023-01-25T23:59:22.764Z,15.57
